Flight Track Log - Related Links

Times and Time Zones

All times are in EST time to prevent confusion due to time zone crossing. See the EJA941 flight status page for this flight to view local times or setup timezone preferences in your user account.

Time Position Orientation Groundspeed Altitude Reporting Facility
EST Latitude Longitude Course Direction KTS MPH feet Rate Location/Type
Mon 02:24:10 PM 26.7089 -79.9983 356° North 208 239 4,500  Level Miami Center
Mon 02:25:10 PM 26.7942 -80.0053 356° North 213 245 8,900 3,500 Climbing Miami Center
Mon 02:26:10 PM 26.8281 -80.0878 295° West 221 254 11,500 2,500 Climbing Miami Center
Mon 02:27:10 PM 26.8403 -80.1858 278° West 309 356 13,900 1,250 Climbing Miami Center
Mon 02:28:10 PM 26.8836 -80.2967 294° West 374 430 14,000 550 Climbing Miami Center
Mon 02:29:10 PM 26.9817 -80.3928 319° Northwest 391 450 15,000 1,200 Climbing Miami Center
Mon 02:30:10 PM 27.0781 -80.4608 328° Northwest 397 457 16,400 1,400 Climbing Miami Center
Mon 02:31:10 PM 27.1744 -80.5269 329° Northwest 408 470 17,800 1,400 Climbing Miami Center
Mon 02:32:10 PM 27.2689 -80.5953 327° Northwest 408 470 19,200 1,450 Climbing Miami Center
Mon 02:33:10 PM 27.3675 -80.6617 329° Northwest 408 470 20,700 1,450 Climbing Miami Center
Mon 02:34:10 PM 27.4658 -80.7306 328° Northwest 408 470 22,100 1,400 Climbing Miami Center
Mon 02:35:10 PM 27.5642 -80.7994 328° Northwest 413 475 23,500 1,350 Climbing Miami Center
Mon 02:36:10 PM 27.6708 -80.8686 330° Northwest 423 487 24,800 1,350 Climbing Miami Center
Mon 02:37:10 PM 27.7731 -80.9428 327° Northwest 428 493 26,200 1,400 Climbing Miami Center
Mon 02:38:10 PM 27.8753 -81.0144 328° Northwest 428 493 27,600 1,400 Climbing Miami Center
Mon 02:39:10 PM 27.9817 -81.0864 329° Northwest 428 493 29,000 1,450 Climbing Miami Center
Mon 02:40:10 PM 28.0797 -81.1631 325° Northwest 434 499 30,500 1,400 Climbing Miami Center
Mon 02:41:10 PM 28.1683 -81.2631 315° West 441 507 31,800 1,300 Climbing Miami Center
Mon 02:42:10 PM 28.2408 -81.3531 312° West 430 495 33,100 1,450 Climbing Miami Center
Mon 02:43:10 PM 28.3289 -81.4672 311° West 437 503 34,700 1,650 Climbing Miami Center
Mon 02:44:10 PM 28.4111 -81.5697 312° West 437 503 36,400 1,720 Climbing Miami Center
Mon 02:45:33 PM 28.5222 -81.7089 312° West 440 506 38,800 1,510 Climbing Jacksonville Center
Mon 02:46:33 PM 28.6003 -81.8072 312° West 430 495 40,000 600 Climbing Jacksonville Center
Mon 02:47:33 PM 28.6761 -81.9081 311° West 430 495 40,000  Level Jacksonville Center
Mon 02:48:33 PM 28.7625 -82.0092 314° West 430 495 40,000  Level Jacksonville Center
Mon 02:49:33 PM 28.8467 -82.1222 310° West 448 516 40,000 100 Level Jacksonville Center
Mon 02:50:33 PM 28.9308 -82.2283 312° West 453 521 40,200 500 Climbing Jacksonville Center
Mon 02:51:33 PM 29.0106 -82.3347 311° West 453 521 41,000 750 Climbing Jacksonville Center
Mon 02:52:33 PM 29.0944 -82.4411 312° West 453 521 41,700 700 Climbing Jacksonville Center
Mon 02:53:33 PM 29.1764 -82.5453 312° West 453 521 42,400 650 Climbing Jacksonville Center
Mon 02:54:33 PM 29.2581 -82.6522 311° West 453 521 43,000 300 Climbing Jacksonville Center
Mon 02:55:33 PM 29.3394 -82.7592 311° West 453 521 43,000  Level Jacksonville Center
Mon 02:56:33 PM 29.4211 -82.8664 311° West 453 521 43,000  Level Jacksonville Center
Mon 02:57:33 PM 29.5003 -82.9714 311° West 466 536 43,000  Level Jacksonville Center
Mon 02:58:33 PM 29.5836 -83.0789 312° West 471 542 43,000  Level Jacksonville Center
Mon 02:59:33 PM 29.6817 -83.1794 318° Northwest 471 542 43,000  Level Jacksonville Center
Mon 03:00:33 PM 29.7836 -83.2756 321° Northwest 469 540 43,000  Level Jacksonville Center
Mon 03:01:33 PM 29.8878 -83.3644 324° Northwest 474 545 43,000  Level Jacksonville Center
Mon 03:02:33 PM 29.9917 -83.4539 323° Northwest 474 545 43,000  Level Jacksonville Center
Mon 03:03:33 PM 30.0958 -83.5456 323° Northwest 469 540 43,000  Level Jacksonville Center
Mon 03:04:33 PM 30.1997 -83.6400 322° Northwest 469 540 43,000  Level Jacksonville Center
Mon 03:05:33 PM 30.3033 -83.7300 323° Northwest 469 540 43,000  Level Jacksonville Center
Mon 03:06:33 PM 30.4072 -83.8222 323° Northwest 469 540 43,000  Level Jacksonville Center
Mon 03:07:33 PM 30.5108 -83.9172 322° Northwest 469 540 43,000  Level Jacksonville Center
Mon 03:08:33 PM 30.6206 -84.0200 321° Northwest 464 534 43,000  Level Jacksonville Center
Mon 03:09:33 PM 30.7261 -84.1225 320° Northwest 475 547 43,000  Level Jacksonville Center
Mon 03:10:33 PM 30.8236 -84.2036 324° Northwest 468 539 43,000  Level Jacksonville Center
Mon 03:11:33 PM 30.9269 -84.2997 321° Northwest 468 539 43,000  Level Jacksonville Center
Mon 03:12:33 PM 31.0094 -84.3761 322° Northwest 468 539 43,000  Level Jacksonville Center
Mon 03:13:33 PM 31.1211 -84.4772 322° Northwest 468 539 43,000  Level Jacksonville Center
Mon 03:14:33 PM 31.2222 -84.5736 321° Northwest 468 539 43,000  Level Jacksonville Center
Mon 03:15:33 PM 31.3272 -84.6681 322° Northwest 468 539 43,000  Level Jacksonville Center
Mon 03:18:03 PM 31.5911 -84.9117 322° Northwest 468 539 43,000  Level Atlanta Center
Mon 03:19:03 PM 31.6928 -85.0053 322° Northwest 468 539 43,000  Level Atlanta Center
Mon 03:20:03 PM 31.7964 -85.1019 322° Northwest 468 539 43,000  Level Atlanta Center
Mon 03:21:03 PM 31.8875 -85.1836 323° Northwest 468 539 43,000  Level Atlanta Center
Mon 03:22:03 PM 31.9908 -85.2803 322° Northwest 468 539 43,000  Level Atlanta Center
Mon 03:23:03 PM 32.0922 -85.3750 322° Northwest 468 539 43,000  Level Atlanta Center
Mon 03:24:03 PM 32.1975 -85.4747 321° Northwest 473 544 43,000  Level Atlanta Center
Mon 03:25:03 PM 32.3006 -85.5722 321° Northwest 473 544 43,000  Level Atlanta Center
Mon 03:26:03 PM 32.4142 -85.6800 321° Northwest 474 545 43,000  Level Atlanta Center
Mon 03:27:03 PM 32.5172 -85.7781 321° Northwest 474 545 43,000  Level Atlanta Center
Mon 03:28:03 PM 32.6222 -85.8761 322° Northwest 474 545 43,000  Level Atlanta Center
Mon 03:29:03 PM 32.7231 -85.9722 321° Northwest 474 545 43,000  Level Atlanta Center
Mon 03:30:03 PM 32.8256 -86.0733 320° Northwest 469 540 43,000  Level Atlanta Center
Mon 03:31:03 PM 32.9264 -86.1719 321° Northwest 474 545 43,000  Level Atlanta Center
Mon 03:32:03 PM 33.0267 -86.2711 320° Northwest 469 540 43,000  Level Atlanta Center
Mon 03:33:03 PM 33.1314 -86.3656 323° Northwest 469 540 43,000  Level Atlanta Center
Mon 03:34:03 PM 33.2319 -86.4650 320° Northwest 469 540 43,000  Level Atlanta Center
Mon 03:35:03 PM 33.3197 -86.5569 319° Northwest 464 534 43,000  Level Atlanta Center
Mon 03:36:03 PM 33.4219 -86.6572 321° Northwest 469 540 43,000  Level Atlanta Center
Mon 03:37:03 PM 33.5242 -86.7550 321° Northwest 469 540 43,000  Level Atlanta Center
Mon 03:38:03 PM 33.6264 -86.8581 320° Northwest 469 540 43,000  Level Atlanta Center
Mon 03:39:03 PM 33.7306 -86.9486 324° Northwest 469 540 43,000  Level Atlanta Center
Mon 03:40:44 PM 33.9317 -87.1056 327° Northwest 480 552 43,000  Level Memphis Center
Mon 03:41:46 PM 34.0431 -87.1939 327° Northwest 480 552 43,000  Level Memphis Center
Mon 03:42:48 PM 34.1489 -87.2778 327° Northwest 479 551 43,000  Level Memphis Center
Mon 03:43:50 PM 34.2803 -87.3825 327° Northwest 479 551 43,000  Level Memphis Center
Mon 03:44:52 PM 34.3917 -87.4728 326° Northwest 478 550 43,000  Level Memphis Center
Mon 03:45:54 PM 34.5050 -87.5614 327° Northwest 479 551 43,000  Level Memphis Center
Mon 03:46:56 PM 34.6128 -87.6478 327° Northwest 482 555 43,000  Level Memphis Center
Mon 03:47:58 PM 34.7242 -87.7375 327° Northwest 482 555 43,000  Level Memphis Center
Mon 03:49:00 PM 34.8339 -87.8269 326° Northwest 478 550 43,000  Level Memphis Center
Mon 03:50:02 PM 34.9664 -87.9350 326° Northwest 478 550 43,000  Level Memphis Center
Mon 03:51:04 PM 35.0778 -88.0253 326° Northwest 481 554 43,000  Level Memphis Center
Mon 03:52:06 PM 35.1894 -88.1178 326° Northwest 484 557 43,000  Level Memphis Center
Mon 03:53:08 PM 35.3022 -88.2103 326° Northwest 487 560 43,000  Level Memphis Center
Mon 03:54:10 PM 35.4175 -88.3042 326° Northwest 485 558 43,000  Level Memphis Center
Mon 03:55:12 PM 35.5319 -88.3944 327° Northwest 487 560 43,000  Level Memphis Center
Mon 03:56:14 PM 35.6825 -88.4844 334° Northwest 497 572 43,000  Level Memphis Center
Mon 03:57:16 PM 35.8083 -88.5603 334° Northwest 502 578 43,000  Level Memphis Center
Mon 03:58:18 PM 35.9336 -88.6347 334° Northwest 501 577 43,000  Level Memphis Center
Mon 03:59:20 PM 36.0572 -88.7092 334° Northwest 498 573 43,000  Level Memphis Center
Mon 04:00:26 PM 36.2042 -88.7986 334° Northwest 494 568 43,000  Level Memphis Center
Mon 04:01:28 PM 36.3261 -88.8733 334° Northwest 493 567 43,000  Level Memphis Center
Mon 04:02:30 PM 36.4483 -88.9472 334° Northwest 493 567 43,000  Level Memphis Center
Mon 04:03:32 PM 36.5706 -89.0231 334° Northwest 496 571 43,000  Level Memphis Center
Mon 04:04:34 PM 36.6917 -89.0978 334° Northwest 493 567 43,000  Level Memphis Center
Mon 04:05:36 PM 36.8369 -89.1886 333° Northwest 491 565 43,000  Level Memphis Center
Mon 04:06:38 PM 36.9589 -89.2644 334° Northwest 491 565 43,000  Level Memphis Center
Mon 04:07:40 PM 37.0814 -89.3406 334° Northwest 492 566 43,000  Level Memphis Center
Mon 04:08:42 PM 37.2047 -89.4178 333° Northwest 495 570 43,000  Level Memphis Center
Mon 04:09:44 PM 37.3283 -89.4967 333° Northwest 497 572 43,000  Level Memphis Center
Mon 04:10:46 PM 37.4519 -89.5742 334° Northwest 497 572 43,000  Level Memphis Center
Mon 04:11:39 PM 37.5758 -89.6539 333° Northwest 496 571 43,000  Level Kansas City Center
Mon 04:12:43 PM 37.6881 -89.7250 333° Northwest 495 570 43,000  Level Kansas City Center
Mon 04:13:44 PM 37.8361 -89.8183 334° Northwest 496 571 43,000  Level Kansas City Center
Mon 04:14:47 PM 37.9600 -89.8972 333° Northwest 500 575 43,000  Level Kansas City Center
Mon 04:15:48 PM 38.0925 -89.9814 333° Northwest 494 568 43,000  Level Kansas City Center
Mon 04:16:49 PM 38.2053 -90.0533 333° Northwest 492 566 43,000  Level Kansas City Center
Mon 04:17:53 PM 38.3300 -90.1336 333° Northwest 500 575 43,000  Level Kansas City Center
Mon 04:18:54 PM 38.4675 -90.2236 333° Northwest 500 575 43,000  Level Kansas City Center
Mon 04:19:57 PM 38.5911 -90.3044 333° Northwest 499 574 43,000  Level Kansas City Center
Mon 04:20:59 PM 38.7139 -90.3847 333° Northwest 498 573 43,000  Level Kansas City Center
Mon 04:21:59 PM 38.8369 -90.4661 333° Northwest 497 572 43,000  Level Kansas City Center
Mon 04:23:03 PM 39.0017 -90.5381 341° North 530 610 43,000  Level Kansas City Center
Mon 04:24:05 PM 39.1400 -90.5922 343° North 523 602 43,000  Level Kansas City Center
Mon 04:25:08 PM 39.2794 -90.6461 343° North 522 601 43,000  Level Kansas City Center
Mon 04:26:09 PM 39.4192 -90.6997 343° North 523 602 43,000 -532 Level Kansas City Center
Mon 04:27:12 PM 39.5603 -90.7556 343° North 528 608 41,900 -1,463 Descending Kansas City Center
Mon 04:28:12 PM 39.7047 -90.8119 343° North 537 618 40,000 -1,548 Descending Kansas City Center
Mon 04:29:16 PM 39.8733 -90.8800 343° North 543 625 38,700 -1,392 Descending Kansas City Center
Mon 04:30:17 PM 40.0181 -90.9386 343° North 543 625 37,100 -1,645 Descending Kansas City Center
Mon 04:31:20 PM 40.1500 -90.9906 343° North 541 623 35,300 -1,920 Descending Kansas City Center
Mon 04:32:22 PM 40.3011 -91.0511 343° North 529 609 33,100 -1,230 Descending Kansas City Center
Mon 04:33:22 PM 40.4469 -91.1089 343° North 535 616 32,800 -1,200 Descending Kansas City Center
Mon 04:34:27 PM 40.5922 -91.1689 343° North 541 623 30,600 -2,256 Descending Kansas City Center
Mon 04:35:27 PM 40.7628 -91.2378 343° North 537 618 28,100 -1,475 Descending Kansas City Center
Mon 04:36:29 PM 40.9072 -91.2967 343° North 528 608 27,600 -1,056 Descending Kansas City Center
Mon 04:37:32 PM 41.0375 -91.3508 343° North 510 587 25,900 -2,169 Descending Kansas City Center
Mon 04:38:39 PM 41.1803 -91.4086 343° North 454 522 22,900 -2,558 Descending Chicago Center
Mon 04:39:41 PM 41.2878 -91.4528 343° North 412 474 20,400 -3,000 Descending Chicago Center
Mon 04:40:43 PM 41.3883 -91.4969 342° North 378 435 16,700 -3,242 Descending Chicago Center
Mon 04:41:45 PM 41.4781 -91.5325 343° North 342 394 13,700 -2,903 Descending Chicago Center
Mon 04:42:47 PM 41.5625 -91.5531 350° North 320 368 10,700 -2,516 Descending Chicago Center
Mon 04:43:49 PM 41.6303 -91.5208 20° North 272 313 8,500 -2,064 Descending Chicago Center
Mon 04:44:52 PM 41.6925 -91.4625 35° Northeast 238 274 6,400 -1,572 Descending Chicago Center
Mon 04:46:56 PM 41.7589 -91.5325 343° North 175 201 3,600 -1,070 Descending Chicago Center
Mon 04:47:57 PM 41.7861 -91.5769 309° West 162 186 3,100 -537 Descending Chicago Center
Mon 04:48:59 PM 41.8178 -91.6183 316° Northwest 160 184 2,500 -581 Descending Chicago Center
Mon 04:50:01 PM 41.8481 -91.6564 317° Northwest 157 181 1,900 -581 Descending Chicago Center
Mon 04:52:00 PM 41.8833 -91.7000 346° North  Level FlightAware Approximate
Mon 04:59:00 PM 41.8847 -91.7108 346° North  Level Estimated

Login

Don't have an account? Register now (free) for customized features, flight alerts, and more!